Time;durP1;ratioP1;P1;durP2;ratioP2;P2;SDS_P1;SDS_P2;PMS_P1;PMS_P2;Temp;Humidity;BMP_temperature;BMP_pressure;BME280_temperature;BME280_humidity;BME280_pressure;Samples;Min_cycle;Max_cycle;Signal;HPM_P1;HPM_P2
2023/08/04 00:00:12;;;;;;;5.05;2.80;;;;;;;17.23;78.90;92351.19;2039345;70;20161;-90
2023/08/04 00:02:42;;;;;;;5.35;2.70;;;;;;;17.33;78.81;92365.00;2042130;70;20165;-90
2023/08/04 00:05:08;;;;;;;5.85;2.45;;;;;;;17.32;80.04;92374.16;2038440;70;20171;-86
2023/08/04 00:07:34;;;;;;;5.18;2.70;;;;;;;17.32;79.07;92369.22;2041787;70;20311;-89
2023/08/04 00:10:00;;;;;;;5.82;2.88;;;;;;;17.40;78.54;92374.44;2041702;70;20560;-90
2023/08/04 00:12:26;;;;;;;5.30;3.17;;;;;;;17.35;79.40;92370.72;2042085;70;20163;-87
2023/08/04 00:14:52;;;;;;;9.10;3.30;;;;;;;17.44;77.82;92368.88;2043166;70;20147;-91
2023/08/04 00:17:17;;;;;;;5.90;2.70;;;;;;;17.37;78.89;92365.13;2042137;70;20167;-90
2023/08/04 00:19:43;;;;;;;3.42;2.50;;;;;;;17.36;78.65;92354.38;2041584;70;20577;-85
2023/08/04 00:22:08;;;;;;;6.80;2.80;;;;;;;17.10;79.28;92352.19;2045110;70;20135;-81
2023/08/04 00:24:34;;;;;;;4.80;3.13;;;;;;;16.64;83.16;92354.97;2046146;70;20167;-89
2023/08/04 00:27:01;;;;;;;8.45;3.38;;;;;;;17.02;81.41;92340.56;2044407;70;20196;-87
2023/08/04 00:29:28;;;;;;;7.53;3.22;;;;;;;17.18;80.85;92341.09;2043104;70;20155;-90
2023/08/04 00:31:54;;;;;;;7.70;3.85;;;;;;;16.88;82.29;92329.47;2042874;70;20163;-93
2023/08/04 00:34:24;;;;;;;5.43;3.35;;;;;;;17.16;81.34;92334.59;2038685;70;20174;-85
2023/08/04 00:36:51;;;;;;;8.70;3.42;;;;;;;17.17;80.87;92324.66;2045452;70;20195;-86
2023/08/04 00:39:17;;;;;;;8.77;3.50;;;;;;;16.81;83.08;92324.25;2045903;70;20147;-90
2023/08/04 00:41:45;;;;;;;6.72;3.33;;;;;;;17.03;81.92;92327.81;2038229;70;20158;-89
2023/08/04 00:44:10;;;;;;;8.63;3.60;;;;;;;17.15;80.85;92316.09;2042509;70;20270;-92
2023/08/04 00:46:37;;;;;;;4.05;2.90;;;;;;;17.14;81.47;92315.34;2036567;70;20589;-90
2023/08/04 00:49:04;;;;;;;6.30;2.95;;;;;;;17.17;81.32;92314.00;2042184;70;20163;-93
2023/08/04 00:51:34;;;;;;;5.47;2.80;;;;;;;17.05;80.93;92310.09;2042133;70;20193;-91
2023/08/04 00:54:03;;;;;;;7.07;2.70;;;;;;;17.08;79.97;92291.69;2038945;70;20265;-93
2023/08/04 00:56:31;;;;;;;3.83;2.20;;;;;;;17.21;79.85;92314.13;2042660;70;20147;-92
2023/08/04 00:58:59;;;;;;;5.15;2.30;;;;;;;17.17;79.11;92319.69;2041871;70;20130;-92
2023/08/04 01:01:25;;;;;;;4.65;2.30;;;;;;;17.14;79.39;92320.31;2042177;70;20147;-91
2023/08/04 01:03:51;;;;;;;6.47;2.25;;;;;;;17.11;79.03;92313.13;2041411;70;20155;-90
2023/08/04 01:06:51;;;;;;;4.88;2.47;;;;;;;17.00;80.50;92292.19;2041593;70;20155;-91
2023/08/04 01:09:35;;;;;;;5.85;2.40;;;;;;;17.11;79.73;92293.19;2039553;70;20174;-93
2023/08/04 01:12:35;;;;;;;5.13;2.40;;;;;;;17.19;79.22;92282.81;2042167;70;20186;-93
2023/08/04 01:15:02;;;;;;;4.80;2.30;;;;;;;17.18;79.46;92266.38;2037718;70;20139;-91
2023/08/04 01:17:30;;;;;;;4.78;2.25;;;;;;;16.53;81.64;92254.44;2041411;70;20241;-93
2023/08/04 01:19:57;;;;;;;5.07;2.40;;;;;;;16.44;82.70;92258.44;2038652;70;20155;-91
2023/08/04 01:22:24;;;;;;;3.28;2.20;;;;;;;16.55;82.20;92264.44;2038628;70;20692;-89
2023/08/04 01:24:52;;;;;;;3.25;1.98;;;;;;;16.73;80.31;92253.69;2041961;70;20246;-88
2023/08/04 01:27:23;;;;;;;5.65;2.03;;;;;;;16.88;79.56;92249.16;2042362;70;20131;-88
2023/08/04 01:29:50;;;;;;;8.40;2.17;;;;;;;16.91;79.58;92254.25;2038350;70;20165;-94
2023/08/04 01:32:16;;;;;;;5.68;2.00;;;;;;;16.83;79.70;92256.09;2038344;70;21263;-92
2023/08/04 01:34:44;;;;;;;7.70;2.03;;;;;;;16.79;79.85;92259.53;2041154;70;20222;-90
2023/08/04 01:37:10;;;;;;;3.80;2.05;;;;;;;16.88;79.06;92249.16;2041124;70;20194;-91
2023/08/04 01:39:37;;;;;;;4.25;2.30;;;;;;;16.94;79.10;92243.66;2041293;70;20167;-93
2023/08/04 01:42:04;;;;;;;4.95;1.98;;;;;;;16.82;79.76;92241.16;2041078;70;20135;-88
2023/08/04 01:44:30;;;;;;;3.17;2.08;;;;;;;16.86;79.88;92241.31;2037528;70;20144;-85
2023/08/04 01:46:57;;;;;;;3.83;2.03;;;;;;;16.92;79.43;92235.06;2038301;70;20152;-91
2023/08/04 01:49:22;;;;;;;6.80;2.28;;;;;;;16.91;79.96;92250.69;2037809;70;20273;-90
2023/08/04 01:51:48;;;;;;;5.32;2.10;;;;;;;16.93;80.15;92262.09;2033735;70;20161;-86
2023/08/04 01:54:14;;;;;;;3.92;1.80;;;;;;;16.96;80.35;92266.47;2037560;70;20606;-90
2023/08/04 01:56:40;;;;;;;4.85;1.98;;;;;;;16.87;80.38;92264.75;2038344;70;20143;-84
2023/08/04 01:59:06;;;;;;;4.00;1.90;;;;;;;16.64;80.02;92271.84;2037717;70;20668;-86
2023/08/04 02:01:32;;;;;;;4.80;1.85;;;;;;;16.78;78.56;92269.47;2034284;70;20167;-88
2023/08/04 02:03:58;;;;;;;4.05;1.52;;;;;;;16.36;79.45;92268.81;2034312;70;20140;-87
2023/08/04 02:06:23;;;;;;;4.40;1.73;;;;;;;16.30;81.03;92266.50;2037963;70;20148;-88
2023/08/04 02:08:49;;;;;;;1.95;1.42;;;;;;;16.29;79.87;92262.19;2037547;70;20169;-88
2023/08/04 02:11:15;;;;;;;3.28;1.60;;;;;;;16.23;80.08;92264.84;2037725;70;20177;-89
2023/08/04 02:13:40;;;;;;;3.58;1.58;;;;;;;16.42;79.63;92277.53;2037622;70;20175;-85
2023/08/04 02:16:06;;;;;;;4.07;1.77;;;;;;;16.51;78.90;92307.66;2034365;70;20247;-90
2023/08/04 02:18:32;;;;;;;2.40;1.75;;;;;;;16.32;79.11;92345.38;2034407;70;20144;-87
2023/08/04 02:20:59;;;;;;;4.00;1.80;;;;;;;16.43;78.39;92355.69;2038477;70;20160;-85
2023/08/04 02:23:26;;;;;;;4.47;1.50;;;;;;;16.37;79.63;92338.44;2038364;70;20154;-90
2023/08/04 02:25:51;;;;;;;3.85;1.85;;;;;;;16.45;79.41;92330.19;2043456;70;20148;-92
2023/08/04 02:28:17;;;;;;;4.75;1.70;;;;;;;16.20;81.12;92343.56;2036028;70;20302;-86
2023/08/04 02:30:43;;;;;;;5.07;1.63;;;;;;;16.31;80.43;92344.66;2038985;70;20166;-93
2023/08/04 02:33:08;;;;;;;3.95;1.70;;;;;;;16.34;79.90;92331.22;2044005;70;20152;-86
2023/08/04 02:35:34;;;;;;;3.92;1.52;;;;;;;16.33;80.07;92341.16;2043237;70;20581;-93
2023/08/04 02:38:00;;;;;;;3.42;1.20;;;;;;;16.13;80.14;92332.66;2042627;70;20604;-92
2023/08/04 02:40:26;;;;;;;2.97;1.35;;;;;;;16.36;79.21;92332.03;2042301;70;20624;-93
2023/08/04 02:42:51;;;;;;;3.08;1.33;;;;;;;16.25;79.30;92341.59;2042920;70;20138;-87
2023/08/04 02:45:17;;;;;;;2.33;1.27;;;;;;;16.10;79.55;92323.34;2043055;70;20143;-87
2023/08/04 02:47:43;;;;;;;4.10;1.42;;;;;;;16.13;79.45;92341.19;2039495;70;20497;-93
2023/08/04 02:50:08;;;;;;;2.83;1.10;;;;;;;16.06;79.54;92337.41;2042786;70;20144;-88
2023/08/04 02:52:34;;;;;;;1.55;1.10;;;;;;;15.62;81.10;92325.16;2039685;70;20207;-88
2023/08/04 02:55:00;;;;;;;3.08;1.10;;;;;;;16.07;80.27;92333.16;2043234;70;20174;-91
2023/08/04 02:57:31;;;;;;;2.65;1.30;;;;;;;16.05;80.27;92340.91;2042660;70;20155;-87
2023/08/04 02:59:58;;;;;;;3.70;1.00;;;;;;;16.20;78.83;92343.56;2042788;70;20135;-93
2023/08/04 03:02:25;;;;;;;4.45;1.10;;;;;;;16.13;78.71;92346.88;2043002;70;20183;-94
2023/08/04 03:04:50;;;;;;;2.33;1.08;;;;;;;15.87;80.20;92355.91;2043603;70;20204;-93
2023/08/04 03:07:16;;;;;;;3.15;1.05;;;;;;;15.86;79.99;92368.63;2043256;70;20183;-93
2023/08/04 03:09:42;;;;;;;2.47;0.93;;;;;;;15.59;81.09;92389.63;2043945;70;20166;-94
2023/08/04 03:12:08;;;;;;;2.70;0.95;;;;;;;15.85;80.03;92391.97;2045531;70;20158;-94
2023/08/04 03:14:33;;;;;;;3.63;1.00;;;;;;;15.87;79.45;92400.59;2045145;70;20155;-94
2023/08/04 03:16:59;;;;;;;4.05;0.93;;;;;;;15.90;79.31;92390.78;2043221;70;20509;-91
2023/08/04 03:19:24;;;;;;;3.30;0.85;;;;;;;16.02;78.32;92385.50;2042836;70;20147;-93
2023/08/04 03:21:50;;;;;;;0.88;0.70;;;;;;;15.99;78.07;92387.56;2043039;70;20179;-89
2023/08/04 03:24:16;;;;;;;2.38;0.80;;;;;;;15.91;78.72;92398.63;2043106;70;20151;-93
2023/08/04 03:26:42;;;;;;;5.30;0.80;;;;;;;15.97;78.33;92398.84;2039874;70;20230;-94
2023/08/04 03:29:07;;;;;;;4.70;0.90;;;;;;;15.98;78.44;92403.13;2043025;70;20158;-92
2023/08/04 03:31:33;;;;;;;2.65;0.80;;;;;;;15.97;79.00;92407.34;2043151;70;20516;-91
2023/08/04 03:34:00;;;;;;;2.17;0.80;;;;;;;15.93;78.71;92410.03;2043166;70;20233;-92
2023/08/04 03:36:25;;;;;;;3.60;0.93;;;;;;;15.95;78.00;92423.59;2043800;70;20177;-89
2023/08/04 03:38:51;;;;;;;5.00;0.93;;;;;;;16.02;78.44;92420.31;2043667;70;20183;-85
2023/08/04 03:41:17;;;;;;;2.22;0.80;;;;;;;15.97;78.57;92424.38;2047212;70;20139;-80
2023/08/04 03:43:42;;;;;;;3.05;0.90;;;;;;;15.86;79.55;92428.25;2048052;70;20154;-86
2023/08/04 03:46:08;;;;;;;4.40;1.25;;;;;;;15.89;78.99;92426.91;2043894;70;20147;-91
2023/08/04 03:48:33;;;;;;;4.57;0.88;;;;;;;15.97;78.17;92410.19;2043383;70;20167;-86
2023/08/04 03:50:59;;;;;;;2.45;0.90;;;;;;;15.92;78.49;92428.47;2043113;70;20144;-93
2023/08/04 03:53:25;;;;;;;3.65;0.70;;;;;;;15.74;78.67;92444.81;2043018;70;20143;-90
2023/08/04 03:55:50;;;;;;;5.65;0.95;;;;;;;15.62;78.85;92444.31;2043144;70;20162;-88
2023/08/04 03:58:16;;;;;;;6.95;1.00;;;;;;;15.77;78.89;92437.84;2043078;70;20144;-91
2023/08/04 04:00:41;;;;;;;1.98;0.70;;;;;;;15.65;80.05;92426.75;2042702;70;20193;-89
2023/08/04 04:03:07;;;;;;;2.78;0.80;;;;;;;15.74;79.44;92436.31;2042745;70;20136;-87
2023/08/04 04:05:33;;;;;;;3.38;0.63;;;;;;;15.71;79.72;92429.09;2042812;70;20585;-94
2023/08/04 04:07:58;;;;;;;3.45;1.02;;;;;;;15.62;79.65;92439.38;2042776;70;20701;-94
2023/08/04 04:10:24;;;;;;;1.17;0.75;;;;;;;15.77;79.58;92442.78;2042784;70;20161;-94
2023/08/04 04:12:49;;;;;;;1.20;0.60;;;;;;;15.80;79.54;92444.31;2045117;70;20135;-81
2023/08/04 04:15:15;;;;;;;2.80;0.70;;;;;;;15.65;79.14;92446.63;2048555;70;20230;-86
2023/08/04 04:17:41;;;;;;;1.20;0.70;;;;;;;15.70;79.36;92444.66;2044012;70;20157;-90
2023/08/04 04:20:07;;;;;;;1.77;0.88;;;;;;;15.74;79.51;92445.53;2043194;70;20150;-91
2023/08/04 04:22:34;;;;;;;3.05;0.73;;;;;;;15.83;79.55;92445.84;2042868;70;20216;-90
2023/08/04 04:25:00;;;;;;;2.55;0.70;;;;;;;15.81;79.03;92437.28;2042745;70;20190;-90
2023/08/04 04:27:26;;;;;;;2.10;0.77;;;;;;;15.82;78.19;92438.72;2044574;70;20154;-85
2023/08/04 04:29:51;;;;;;;3.10;0.73;;;;;;;15.72;78.52;92430.56;2046573;70;20238;-78
2023/08/04 04:32:17;;;;;;;0.70;0.60;;;;;;;15.73;78.22;92438.41;2039955;70;20155;-88
2023/08/04 04:34:42;;;;;;;3.83;0.90;;;;;;;15.73;78.47;92438.41;2040623;70;20140;-89
2023/08/04 04:37:09;;;;;;;1.40;0.90;;;;;;;15.81;78.76;92438.00;2043083;70;20641;-92
2023/08/04 04:39:35;;;;;;;3.92;0.98;;;;;;;15.79;79.61;92440.75;2042671;70;20616;-90
2023/08/04 04:42:02;;;;;;;1.42;0.70;;;;;;;15.77;80.18;92437.13;2039480;70;20163;-85
2023/08/04 04:44:28;;;;;;;2.65;0.70;;;;;;;15.74;80.07;92437.03;2042350;70;20223;-92
2023/08/04 04:46:54;;;;;;;1.58;0.68;;;;;;;15.77;79.92;92435.00;2043045;70;20163;-88
2023/08/04 04:49:19;;;;;;;2.25;0.70;;;;;;;15.73;78.89;92435.56;2043379;70;20159;-90
2023/08/04 04:51:45;;;;;;;2.25;0.68;;;;;;;15.77;78.85;92434.28;2042878;70;20215;-87
2023/08/04 04:54:11;;;;;;;2.15;0.80;;;;;;;15.77;79.29;92437.84;2042413;70;20166;-80
2023/08/04 04:56:37;;;;;;;2.67;0.80;;;;;;;15.57;80.01;92437.03;2043002;70;20273;-88
2023/08/04 04:59:03;;;;;;;2.60;0.90;;;;;;;15.65;78.76;92437.38;2043164;70;20119;-91
2023/08/04 05:01:28;;;;;;;4.30;0.70;;;;;;;15.70;79.17;92436.16;2038841;70;20529;-93
2023/08/04 05:03:54;;;;;;;2.05;0.80;;;;;;;15.72;78.13;92439.81;2042117;70;20158;-90
2023/08/04 05:06:20;;;;;;;6.10;0.80;;;;;;;15.05;81.50;92447.78;2042762;70;20248;-91
2023/08/04 05:08:45;;;;;;;1.00;0.75;;;;;;;15.10;82.64;92455.78;2042717;70;20158;-89
2023/08/04 05:11:11;;;;;;;3.60;0.80;;;;;;;15.44;79.76;92455.69;2043327;70;20174;-88
2023/08/04 05:13:36;;;;;;;2.40;0.75;;;;;;;15.22;80.59;92458.41;2042561;70;20179;-91
2023/08/04 05:16:04;;;;;;;1.92;0.80;;;;;;;15.12;80.92;92463.63;2042476;70;20145;-88
2023/08/04 05:18:30;;;;;;;2.15;0.77;;;;;;;15.12;81.93;92461.56;2042253;70;20147;-93
2023/08/04 05:20:56;;;;;;;1.30;0.80;;;;;;;15.31;80.81;92463.00;2045822;70;20836;-87
2023/08/04 05:23:22;;;;;;;1.95;0.80;;;;;;;15.43;78.99;92462.75;2042479;70;20152;-91
2023/08/04 05:25:48;;;;;;;1.80;0.80;;;;;;;15.43;79.63;92466.31;2041864;70;20166;-81
2023/08/04 05:28:28;;;;;;;2.53;0.90;;;;;;;15.53;79.19;92465.97;2041662;70;20269;-91
2023/08/04 05:31:01;;;;;;;1.17;0.70;;;;;;;15.52;78.96;92462.41;2041974;70;20159;-87
2023/08/04 05:33:28;;;;;;;3.15;0.70;;;;;;;15.51;78.95;92472.31;2041979;70;20187;-92
2023/08/04 05:35:54;;;;;;;1.45;0.90;;;;;;;15.54;78.91;92458.22;2041886;70;20171;-85
2023/08/04 05:38:20;;;;;;;5.03;0.95;;;;;;;15.31;80.83;92462.28;2039087;70;20230;-82
2023/08/04 05:40:48;;;;;;;3.95;0.90;;;;;;;15.35;80.26;92466.00;2042227;70;20159;-82
2023/08/04 05:43:14;;;;;;;3.33;1.00;;;;;;;15.42;79.75;92459.19;2042971;70;20148;-87
2023/08/04 05:45:41;;;;;;;1.77;1.10;;;;;;;15.46;79.34;92462.19;2039110;70;20635;-91
2023/08/04 05:48:07;;;;;;;2.75;0.93;;;;;;;15.33;79.28;92465.91;2042713;70;20143;-93
2023/08/04 05:50:33;;;;;;;2.45;0.95;;;;;;;14.90;82.33;92461.38;2042741;70;20148;-87
2023/08/04 05:52:59;;;;;;;1.90;0.82;;;;;;;14.51;82.87;92461.13;2045655;70;20147;-81
2023/08/04 05:55:25;;;;;;;1.80;1.00;;;;;;;15.11;81.24;92453.69;2047538;70;20147;-80
2023/08/04 05:57:51;;;;;;;2.35;0.90;;;;;;;15.32;80.47;92450.28;2047705;70;20163;-78
2023/08/04 06:00:17;;;;;;;4.60;0.95;;;;;;;15.27;78.86;92454.34;2047903;70;20151;-82
2023/08/04 06:02:44;;;;;;;1.42;1.00;;;;;;;15.10;78.96;92455.06;2048174;70;20154;-79
2023/08/04 06:05:11;;;;;;;1.85;1.10;;;;;;;15.21;79.22;92454.84;2048271;70;20151;-80
2023/08/04 06:07:37;;;;;;;3.17;1.20;;;;;;;15.27;78.58;92462.84;2047294;70;20681;-93
2023/08/04 06:10:03;;;;;;;2.17;1.08;;;;;;;15.49;77.88;92477.19;2043235;70;20170;-89
2023/08/04 06:12:29;;;;;;;1.27;1.05;;;;;;;15.51;77.39;92483.66;2043341;70;20135;-85
2023/08/04 06:14:55;;;;;;;1.75;1.13;;;;;;;15.61;77.60;92476.91;2043286;70;20151;-92
2023/08/04 06:17:20;;;;;;;4.43;1.42;;;;;;;15.57;78.34;92497.34;2044467;70;20151;-93
2023/08/04 06:19:46;;;;;;;1.83;1.15;;;;;;;15.31;78.52;92493.47;2045874;70;20206;-92
2023/08/04 06:22:15;;;;;;;2.17;1.00;;;;;;;15.55;77.90;92502.94;2045141;70;20254;-94
2023/08/04 06:24:41;;;;;;;2.70;1.02;;;;;;;15.52;78.34;92501.41;2045553;70;20169;-93
2023/08/04 06:27:07;;;;;;;1.10;0.90;;;;;;;15.36;78.20;92501.50;2046372;70;20163;-93
2023/08/04 06:29:33;;;;;;;0.80;0.80;;;;;;;15.27;78.78;92496.88;2045331;70;20154;-83
2023/08/04 06:31:59;;;;;;;1.83;0.70;;;;;;;15.41;78.75;92503.13;2045551;70;20140;-94
2023/08/04 06:34:24;;;;;;;1.67;0.80;;;;;;;15.52;78.21;92501.41;2043197;70;20155;-93
2023/08/04 06:36:50;;;;;;;4.90;0.98;;;;;;;15.59;78.18;92503.09;2042440;70;20610;-86
2023/08/04 06:39:16;;;;;;;2.63;1.00;;;;;;;15.71;77.47;92497.94;2042601;70;20143;-84
2023/08/04 06:41:42;;;;;;;1.25;0.70;;;;;;;15.68;77.74;92499.22;2042805;70;20641;-88
2023/08/04 06:44:08;;;;;;;0.63;0.60;;;;;;;15.78;78.22;92498.88;2042421;70;20151;-92
2023/08/04 06:46:33;;;;;;;1.92;0.60;;;;;;;15.80;77.32;92506.75;2042570;70;20185;-91
2023/08/04 06:48:59;;;;;;;1.98;0.73;;;;;;;15.79;75.68;92500.34;2042637;70;20136;-93
2023/08/04 06:51:25;;;;;;;1.48;0.73;;;;;;;15.73;77.86;92511.47;2042744;70;20614;-90
2023/08/04 06:53:50;;;;;;;1.48;1.23;;;;;;;15.64;78.78;92499.06;2042254;70;20165;-90
2023/08/04 06:56:16;;;;;;;1.27;0.70;;;;;;;15.72;78.97;92504.34;2042213;70;20594;-89
2023/08/04 06:58:41;;;;;;;1.17;0.70;;;;;;;15.73;79.12;92494.44;2042229;70;20143;-90
2023/08/04 07:01:07;;;;;;;1.77;0.80;;;;;;;15.43;78.56;92500.34;2042413;70;20561;-92
2023/08/04 07:03:33;;;;;;;0.80;0.60;;;;;;;15.42;75.96;92503.84;2042505;70;20581;-91
2023/08/04 07:05:59;;;;;;;2.00;0.85;;;;;;;15.56;75.73;92501.56;2042119;70;20615;-90
2023/08/04 07:08:24;;;;;;;1.50;0.73;;;;;;;15.62;76.72;92509.56;2041903;70;20713;-88
2023/08/04 07:10:50;;;;;;;4.10;0.73;;;;;;;15.71;76.00;92509.28;2041929;70;20147;-90
2023/08/04 07:13:16;;;;;;;0.93;0.70;;;;;;;15.58;75.61;92498.81;2042044;70;20525;-88
2023/08/04 07:15:52;;;;;;;0.50;0.50;;;;;;;15.54;75.04;92503.59;2042395;70;20167;-87
2023/08/04 07:18:18;;;;;;;3.47;0.50;;;;;;;15.67;75.61;92502.72;2039222;70;20274;-88
2023/08/04 07:20:43;;;;;;;2.28;0.80;;;;;;;15.54;74.95;92497.94;2039245;70;20589;-89
2023/08/04 07:23:09;;;;;;;1.63;0.70;;;;;;;15.54;77.24;92512.13;2042086;70;20157;-88
2023/08/04 07:25:34;;;;;;;0.95;0.70;;;;;;;15.67;76.74;92511.25;2043542;70;20151;-88
2023/08/04 07:28:00;;;;;;;1.08;0.60;;;;;;;15.74;75.20;92518.59;2043991;70;20215;-86
2023/08/04 07:30:26;;;;;;;0.73;0.63;;;;;;;15.78;76.37;92507.41;2042589;70;20159;-77
2023/08/04 07:32:51;;;;;;;3.55;0.80;;;;;;;15.93;75.51;92509.41;2043080;70;20613;-85
2023/08/04 07:35:17;;;;;;;3.17;0.70;;;;;;;15.93;75.29;92503.00;2042668;70;20181;-87
2023/08/04 07:37:44;;;;;;;0.73;0.60;;;;;;;15.98;76.15;92511.00;2042020;70;20158;-86
2023/08/04 07:40:11;;;;;;;0.65;0.60;;;;;;;15.96;76.68;92510.22;2042024;70;20128;-90
2023/08/04 07:42:39;;;;;;;2.42;0.77;;;;;;;16.01;75.99;92515.38;2041837;70;20139;-90
2023/08/04 07:45:05;;;;;;;1.65;0.73;;;;;;;15.95;76.43;92515.16;2041841;70;20150;-90
2023/08/04 07:47:31;;;;;;;2.85;0.80;;;;;;;15.93;76.43;92512.22;2042092;70;20175;-89
2023/08/04 07:49:56;;;;;;;1.30;0.75;;;;;;;16.06;76.97;92521.22;2041971;70;20252;-88
2023/08/04 07:52:22;;;;;;;3.55;0.90;;;;;;;16.01;77.05;92520.34;2038572;70;20151;-87
2023/08/04 07:54:48;;;;;;;0.70;0.63;;;;;;;16.08;77.66;92510.69;2042288;70;20510;-84
2023/08/04 07:57:13;;;;;;;1.00;0.80;;;;;;;16.06;76.60;92507.03;2042297;70;20632;-89
2023/08/04 07:59:39;;;;;;;2.47;0.88;;;;;;;16.13;77.09;92511.56;2042213;70;20132;-89
2023/08/04 08:02:05;;;;;;;2.38;0.77;;;;;;;16.23;77.22;92503.41;2042048;70;20618;-87
2023/08/04 08:04:31;;;;;;;1.05;0.80;;;;;;;16.24;77.26;92505.59;2042320;70;20222;-84
2023/08/04 08:06:56;;;;;;;2.78;0.75;;;;;;;16.27;77.23;92506.41;2040736;70;20601;-86
2023/08/04 08:09:22;;;;;;;1.77;0.70;;;;;;;16.30;77.31;92510.03;2042949;70;20155;-86
2023/08/04 08:11:47;;;;;;;1.58;0.82;;;;;;;16.16;74.47;92513.81;2042233;70;20200;-87
2023/08/04 08:14:13;;;;;;;1.92;0.70;;;;;;;16.17;74.71;92506.00;2042280;70;20190;-90
2023/08/04 08:16:38;;;;;;;2.15;0.80;;;;;;;16.22;74.49;92511.22;2042645;70;20171;-87
2023/08/04 08:19:04;;;;;;;1.10;0.80;;;;;;;16.17;74.38;92517.38;2042269;70;20131;-88
2023/08/04 08:21:31;;;;;;;1.67;1.40;;;;;;;16.07;74.68;92514.16;2042705;70;20198;-85
2023/08/04 08:23:56;;;;;;;1.80;0.95;;;;;;;16.08;74.36;92507.09;2042428;70;20211;-84
2023/08/04 08:26:22;;;;;;;2.97;0.90;;;;;;;16.19;73.03;92506.09;2042403;70;20147;-87
2023/08/04 08:28:47;;;;;;;1.42;0.73;;;;;;;16.18;72.66;92505.38;2042510;70;20203;-85
2023/08/04 08:31:13;;;;;;;1.40;0.70;;;;;;;16.30;72.21;92507.19;2043277;70;20695;-88
2023/08/04 08:33:38;;;;;;;1.92;0.90;;;;;;;16.20;72.69;92505.44;2042755;70;20143;-90
2023/08/04 08:36:06;;;;;;;2.20;0.90;;;;;;;16.11;73.25;92498.00;2042487;70;20139;-88
2023/08/04 08:38:31;;;;;;;2.92;0.95;;;;;;;16.02;73.63;92485.59;2042226;70;20174;-83
2023/08/04 08:40:57;;;;;;;1.90;1.00;;;;;;;16.23;73.67;92484.25;2042022;70;20578;-84
2023/08/04 08:43:22;;;;;;;2.45;0.90;;;;;;;15.96;73.91;92482.56;2041791;70;20238;-83
2023/08/04 08:45:50;;;;;;;3.60;1.40;;;;;;;15.82;73.88;92487.69;2041864;70;20154;-89
2023/08/04 08:48:18;;;;;;;1.52;1.00;;;;;;;16.08;74.00;92487.97;2042125;70;20139;-82
2023/08/04 08:50:50;;;;;;;1.20;0.85;;;;;;;16.47;73.48;92489.34;2038462;70;20241;-84
2023/08/04 08:53:23;;;;;;;3.33;0.90;;;;;;;16.69;72.96;92486.56;2042094;70;20150;-86
2023/08/04 08:55:50;;;;;;;6.32;0.93;;;;;;;16.64;70.73;92479.28;2041595;70;20210;-88
2023/08/04 08:58:16;;;;;;;1.17;0.90;;;;;;;16.83;70.50;92481.41;2039596;70;20239;-85
2023/08/04 09:00:42;;;;;;;2.65;1.00;;;;;;;17.00;70.97;92474.88;2038469;70;20167;-82
2023/08/04 09:03:09;;;;;;;3.13;1.10;;;;;;;17.16;70.68;92480.38;2041925;70;20169;-83
2023/08/04 09:05:34;;;;;;;2.33;0.90;;;;;;;17.30;72.04;92476.53;2042199;70;20609;-86
2023/08/04 09:08:02;;;;;;;2.58;0.82;;;;;;;17.47;70.49;92484.22;2042214;70;20150;-87
2023/08/04 09:10:29;;;;;;;2.60;0.90;;;;;;;17.58;71.04;92471.03;2041846;70;20157;-87
2023/08/04 09:12:56;;;;;;;3.10;0.90;;;;;;;17.65;70.35;92464.84;2042172;70;20147;-85
2023/08/04 09:15:45;;;;;;;2.95;0.80;;;;;;;17.79;68.99;92470.28;2041621;70;20765;-89
2023/08/04 09:18:26;;;;;;;2.00;0.80;;;;;;;17.68;68.48;92474.91;2041073;70;20154;-87
2023/08/04 09:21:11;;;;;;;1.48;0.95;;;;;;;17.93;67.68;92476.41;2041530;70;20182;-84
2023/08/04 09:23:48;;;;;;;3.70;1.08;;;;;;;17.94;66.36;92469.31;2038449;70;20150;-89
2023/08/04 09:26:14;;;;;;;3.55;1.00;;;;;;;18.03;66.82;92459.63;2041789;70;20315;-90
2023/08/04 09:28:40;;;;;;;1.35;0.85;;;;;;;18.16;66.48;92457.84;2040544;70;20278;-87
2023/08/04 09:31:08;;;;;;;1.58;0.93;;;;;;;18.15;65.92;92453.56;2036818;70;20700;-90
2023/08/04 09:33:41;;;;;;;4.50;1.00;;;;;;;18.17;65.59;92447.19;2037031;70;20158;-86
2023/08/04 09:36:17;;;;;;;1.45;0.80;;;;;;;17.88;66.48;92452.06;2040120;70;20636;-84
2023/08/04 09:38:43;;;;;;;1.85;0.80;;;;;;;17.18;67.59;92432.09;2040243;70;20165;-87
2023/08/04 09:41:11;;;;;;;3.53;0.82;;;;;;;18.04;66.49;92429.72;2040090;70;20147;-85
2023/08/04 09:43:44;;;;;;;2.25;0.80;;;;;;;18.25;65.11;92422.50;2040970;70;20155;-85
2023/08/04 09:46:11;;;;;;;3.80;0.73;;;;;;;17.98;64.52;92435.25;2042088;70;20611;-85
2023/08/04 09:48:36;;;;;;;1.65;0.70;;;;;;;18.59;64.11;92438.38;2042296;70;20147;-90
2023/08/04 09:51:09;;;;;;;2.40;0.77;;;;;;;18.63;62.49;92447.03;2041850;70;20159;-88
2023/08/04 09:53:45;;;;;;;1.52;0.70;;;;;;;18.66;62.43;92454.97;2041673;70;20155;-90
2023/08/04 09:56:13;;;;;;;1.58;0.60;;;;;;;18.19;63.56;92467.16;2041631;70;20521;-86
2023/08/04 09:58:40;;;;;;;1.88;0.70;;;;;;;18.72;62.74;92460.13;2041393;70;20605;-88
2023/08/04 10:01:06;;;;;;;2.03;0.80;;;;;;;18.15;64.61;92467.06;2041432;70;20230;-83
2023/08/04 10:03:33;;;;;;;2.05;0.90;;;;;;;18.87;62.89;92466.94;2041583;70;20162;-84
2023/08/04 10:06:01;;;;;;;3.20;0.88;;;;;;;18.96;62.57;92448.63;2041624;70;20144;-86
2023/08/04 10:08:31;;;;;;;2.70;0.77;;;;;;;19.14;60.46;92443.38;2038726;70;20153;-85
2023/08/04 10:10:58;;;;;;;1.50;1.00;;;;;;;18.90;61.40;92437.78;2041961;70;20601;-86
2023/08/04 10:13:26;;;;;;;1.23;0.70;;;;;;;19.40;60.62;92440.47;2041901;70;20147;-86
2023/08/04 10:15:56;;;;;;;3.58;0.63;;;;;;;19.44;60.15;92436.97;2041938;70;20167;-85
2023/08/04 10:18:25;;;;;;;1.63;0.80;;;;;;;19.44;60.01;92434.13;2041212;70;20609;-87
2023/08/04 10:20:54;;;;;;;1.17;1.00;;;;;;;19.30;60.78;92435.25;2039990;70;20143;-87
2023/08/04 10:23:19;;;;;;;1.80;0.90;;;;;;;19.54;62.20;92440.06;2041356;70;20211;-89
2023/08/04 10:26:00;;;;;;;0.88;0.63;;;;;;;19.67;63.89;92444.69;2041390;70;20171;-86
2023/08/04 10:28:25;;;;;;;2.05;0.68;;;;;;;19.57;63.98;92457.97;2041553;70;20179;-85
2023/08/04 10:31:11;;;;;;;2.10;0.70;;;;;;;19.51;62.60;92469.97;2040920;70;20195;-88
2023/08/04 10:33:37;;;;;;;0.70;0.70;;;;;;;19.79;62.54;92478.50;2041239;70;20195;-85
2023/08/04 10:36:07;;;;;;;2.03;0.80;;;;;;;19.96;61.29;92473.88;2041687;70;20308;-88
2023/08/04 10:38:54;;;;;;;2.90;0.70;;;;;;;20.19;60.30;92475.81;2041302;70;20150;-84
2023/08/04 10:41:19;;;;;;;0.98;0.75;;;;;;;20.12;59.25;92487.81;2041761;70;20613;-84
2023/08/04 10:44:02;;;;;;;1.13;0.75;;;;;;;19.92;60.03;92479.50;2041559;70;20154;-85
2023/08/04 10:46:31;;;;;;;4.75;1.60;;;;;;;20.04;58.55;92474.81;2038012;70;20234;-86
2023/08/04 10:48:57;;;;;;;1.67;0.70;;;;;;;19.16;60.39;92471.97;2038611;70;20170;-86
2023/08/04 10:51:25;;;;;;;2.45;0.75;;;;;;;19.53;58.30;92472.88;2038565;70;20518;-83
2023/08/04 10:53:51;;;;;;;1.00;0.80;;;;;;;19.88;57.48;92477.28;2038552;70;20183;-83
2023/08/04 10:56:21;;;;;;;1.60;0.65;;;;;;;19.74;57.28;92471.25;2039894;70;20632;-81
2023/08/04 10:58:47;;;;;;;2.15;0.80;;;;;;;20.13;58.67;92464.28;2041089;70;20159;-83
2023/08/04 11:01:16;;;;;;;2.03;1.00;;;;;;;19.79;61.24;92467.81;2041887;70;20153;-86
2023/08/04 11:03:48;;;;;;;3.33;0.82;;;;;;;19.58;63.22;92454.44;2038421;70;20336;-86
2023/08/04 11:06:14;;;;;;;2.83;0.80;;;;;;;19.59;64.00;92450.19;2038483;70;20609;-84
2023/08/04 11:08:39;;;;;;;2.42;0.80;;;;;;;19.68;65.14;92449.00;2041624;70;20159;-84
2023/08/04 11:11:06;;;;;;;2.65;0.93;;;;;;;19.84;64.81;92456.47;2041454;70;20160;-87
2023/08/04 11:13:32;;;;;;;5.18;1.08;;;;;;;19.94;65.00;92451.00;2041599;70;20183;-86
2023/08/04 11:16:02;;;;;;;1.50;0.80;;;;;;;20.08;64.41;92444.88;2038209;70;20139;-83
2023/08/04 11:18:29;;;;;;;1.42;0.80;;;;;;;20.18;65.05;92439.38;2041082;70;20148;-82
2023/08/04 11:21:00;;;;;;;2.15;0.80;;;;;;;20.28;64.62;92448.16;2041539;70;20159;-83
2023/08/04 11:23:28;;;;;;;2.15;0.90;;;;;;;20.15;63.53;92449.28;2041406;70;20155;-83
2023/08/04 11:25:55;;;;;;;1.63;0.73;;;;;;;20.01;60.25;92452.56;2041451;70;20546;-80
2023/08/04 11:28:21;;;;;;;0.80;0.63;;;;;;;19.94;61.56;92451.72;2041432;70;20211;-80
2023/08/04 11:30:47;;;;;;;1.95;0.60;;;;;;;20.38;62.31;92448.34;2041112;70;20190;-81
2023/08/04 11:33:14;;;;;;;3.13;0.90;;;;;;;20.29;64.15;92449.59;2041152;70;20597;-81